sensor_id;sensor_type;location;lat;lon;timestamp;P1;durP1;ratioP1;P2;durP2;ratioP2
22455;SDS011;11395;53.204;6.502;2022-12-20T00:06:45;1.90;;;1.80;;
22455;SDS011;11395;53.204;6.502;2022-12-20T00:09:12;3.57;;;1.70;;
22455;SDS011;11395;53.204;6.502;2022-12-20T00:11:38;2.23;;;1.90;;
22455;SDS011;11395;53.204;6.502;2022-12-20T00:14:06;1.77;;;1.67;;
22455;SDS011;11395;53.204;6.502;2022-12-20T00:16:34;2.37;;;2.17;;
22455;SDS011;11395;53.204;6.502;2022-12-20T00:19:02;1.93;;;1.83;;
22455;SDS011;11395;53.204;6.502;2022-12-20T00:21:30;2.33;;;2.00;;
22455;SDS011;11395;53.204;6.502;2022-12-20T00:23:58;2.77;;;2.10;;
22455;SDS011;11395;53.204;6.502;2022-12-20T00:26:26;2.27;;;2.07;;
22455;SDS011;11395;53.204;6.502;2022-12-20T00:28:54;2.20;;;2.10;;
22455;SDS011;11395;53.204;6.502;2022-12-20T00:31:21;1.80;;;1.70;;
22455;SDS011;11395;53.204;6.502;2022-12-20T00:33:50;1.63;;;1.53;;
22455;SDS011;11395;53.204;6.502;2022-12-20T00:36:18;1.60;;;1.50;;
22455;SDS011;11395;53.204;6.502;2022-12-20T00:38:49;2.73;;;1.97;;
22455;SDS011;11395;53.204;6.502;2022-12-20T00:41:18;2.03;;;1.90;;
22455;SDS011;11395;53.204;6.502;2022-12-20T00:43:46;1.70;;;1.60;;
22455;SDS011;11395;53.204;6.502;2022-12-20T00:46:14;2.03;;;1.60;;
22455;SDS011;11395;53.204;6.502;2022-12-20T00:48:41;1.77;;;1.67;;
22455;SDS011;11395;53.204;6.502;2022-12-20T00:51:10;2.10;;;1.90;;
22455;SDS011;11395;53.204;6.502;2022-12-20T00:53:38;2.17;;;1.70;;
22455;SDS011;11395;53.204;6.502;2022-12-20T00:56:05;1.80;;;1.70;;
22455;SDS011;11395;53.204;6.502;2022-12-20T00:58:33;1.63;;;1.50;;
22455;SDS011;11395;53.204;6.502;2022-12-20T01:09:31;2.03;;;1.50;;
22455;SDS011;11395;53.204;6.502;2022-12-20T01:11:57;2.10;;;2.00;;
22455;SDS011;11395;53.204;6.502;2022-12-20T01:14:23;1.57;;;1.47;;
22455;SDS011;11395;53.204;6.502;2022-12-20T01:16:50;1.90;;;1.80;;
22455;SDS011;11395;53.204;6.502;2022-12-20T01:19:17;1.63;;;1.53;;
22455;SDS011;11395;53.204;6.502;2022-12-20T01:21:44;1.90;;;1.80;;
22455;SDS011;11395;53.204;6.502;2022-12-20T01:24:11;1.80;;;1.67;;
22455;SDS011;11395;53.204;6.502;2022-12-20T01:26:39;1.63;;;1.53;;
22455;SDS011;11395;53.204;6.502;2022-12-20T01:29:05;1.90;;;1.77;;
22455;SDS011;11395;53.204;6.502;2022-12-20T01:31:31;2.00;;;1.90;;
22455;SDS011;11395;53.204;6.502;2022-12-20T01:33:58;1.93;;;1.67;;
22455;SDS011;11395;53.204;6.502;2022-12-20T01:36:26;1.60;;;1.50;;
22455;SDS011;11395;53.204;6.502;2022-12-20T01:38:56;1.70;;;1.60;;
22455;SDS011;11395;53.204;6.502;2022-12-20T01:41:24;1.67;;;1.57;;
22455;SDS011;11395;53.204;6.502;2022-12-20T01:44:02;1.83;;;1.70;;
22455;SDS011;11395;53.204;6.502;2022-12-20T01:46:41;1.67;;;1.57;;
22455;SDS011;11395;53.204;6.502;2022-12-20T01:49:14;2.10;;;1.90;;
22455;SDS011;11395;53.204;6.502;2022-12-20T01:52:06;2.33;;;1.70;;
22455;SDS011;11395;53.204;6.502;2022-12-20T01:54:41;1.70;;;1.60;;
22455;SDS011;11395;53.204;6.502;2022-12-20T01:57:15;1.57;;;1.47;;
22455;SDS011;11395;53.204;6.502;2022-12-20T01:59:47;1.93;;;1.73;;
22455;SDS011;11395;53.204;6.502;2022-12-20T02:08:15;1.50;;;1.40;;
22455;SDS011;11395;53.204;6.502;2022-12-20T02:11:04;1.80;;;1.70;;
22455;SDS011;11395;53.204;6.502;2022-12-20T02:13:50;1.40;;;1.30;;
22455;SDS011;11395;53.204;6.502;2022-12-20T02:16:42;1.80;;;1.70;;
22455;SDS011;11395;53.204;6.502;2022-12-20T02:22:28;2.67;;;1.50;;
22455;SDS011;11395;53.204;6.502;2022-12-20T02:31:28;1.90;;;1.80;;
22455;SDS011;11395;53.204;6.502;2022-12-20T02:34:01;1.63;;;1.53;;
22455;SDS011;11395;53.204;6.502;2022-12-20T02:36:30;1.80;;;1.70;;
22455;SDS011;11395;53.204;6.502;2022-12-20T02:38:56;1.50;;;1.40;;
22455;SDS011;11395;53.204;6.502;2022-12-20T02:41:24;1.70;;;1.60;;
22455;SDS011;11395;53.204;6.502;2022-12-20T02:43:57;1.33;;;1.33;;
22455;SDS011;11395;53.204;6.502;2022-12-20T02:46:47;1.93;;;1.83;;
22455;SDS011;11395;53.204;6.502;2022-12-20T02:49:16;2.43;;;1.30;;
22455;SDS011;11395;53.204;6.502;2022-12-20T02:51:46;1.80;;;1.70;;
22455;SDS011;11395;53.204;6.502;2022-12-20T02:54:16;1.93;;;1.63;;
22455;SDS011;11395;53.204;6.502;2022-12-20T02:59:23;1.60;;;1.50;;
22455;SDS011;11395;53.204;6.502;2022-12-20T03:02:10;1.50;;;1.40;;
22455;SDS011;11395;53.204;6.502;2022-12-20T03:04:37;1.70;;;1.60;;
22455;SDS011;11395;53.204;6.502;2022-12-20T03:07:06;1.57;;;1.47;;
22455;SDS011;11395;53.204;6.502;2022-12-20T03:09:36;1.70;;;1.60;;
22455;SDS011;11395;53.204;6.502;2022-12-20T03:12:04;1.57;;;1.47;;
22455;SDS011;11395;53.204;6.502;2022-12-20T03:14:34;2.63;;;1.63;;
22455;SDS011;11395;53.204;6.502;2022-12-20T03:17:04;1.57;;;1.30;;
22455;SDS011;11395;53.204;6.502;2022-12-20T03:19:31;1.60;;;1.50;;
22455;SDS011;11395;53.204;6.502;2022-12-20T03:21:57;1.50;;;1.40;;
22455;SDS011;11395;53.204;6.502;2022-12-20T03:24:24;1.83;;;1.60;;
22455;SDS011;11395;53.204;6.502;2022-12-20T03:26:52;1.50;;;1.40;;
22455;SDS011;11395;53.204;6.502;2022-12-20T03:29:21;1.17;;;1.13;;
22455;SDS011;11395;53.204;6.502;2022-12-20T03:31:47;1.63;;;1.53;;
22455;SDS011;11395;53.204;6.502;2022-12-20T03:34:13;1.60;;;1.50;;
22455;SDS011;11395;53.204;6.502;2022-12-20T03:36:40;1.50;;;1.40;;
22455;SDS011;11395;53.204;6.502;2022-12-20T03:39:06;1.47;;;1.37;;
22455;SDS011;11395;53.204;6.502;2022-12-20T03:41:36;1.60;;;1.50;;
22455;SDS011;11395;53.204;6.502;2022-12-20T03:44:03;1.33;;;1.30;;
22455;SDS011;11395;53.204;6.502;2022-12-20T03:46:30;1.50;;;1.40;;
22455;SDS011;11395;53.204;6.502;2022-12-20T03:48:56;1.50;;;1.40;;
22455;SDS011;11395;53.204;6.502;2022-12-20T03:51:23;1.70;;;1.37;;
22455;SDS011;11395;53.204;6.502;2022-12-20T03:53:49;1.40;;;1.30;;
22455;SDS011;11395;53.204;6.502;2022-12-20T03:56:16;1.47;;;1.37;;
22455;SDS011;11395;53.204;6.502;2022-12-20T03:58:44;1.20;;;1.13;;
22455;SDS011;11395;53.204;6.502;2022-12-20T04:03:45;1.73;;;1.63;;
22455;SDS011;11395;53.204;6.502;2022-12-20T04:06:11;1.20;;;1.20;;
22455;SDS011;11395;53.204;6.502;2022-12-20T04:08:38;1.57;;;1.30;;
22455;SDS011;11395;53.204;6.502;2022-12-20T04:11:04;1.57;;;1.47;;
22455;SDS011;11395;53.204;6.502;2022-12-20T04:13:49;1.40;;;1.30;;
22455;SDS011;11395;53.204;6.502;2022-12-20T04:16:18;1.40;;;1.40;;
22455;SDS011;11395;53.204;6.502;2022-12-20T04:18:46;1.60;;;1.50;;
22455;SDS011;11395;53.204;6.502;2022-12-20T04:21:14;1.13;;;1.13;;
22455;SDS011;11395;53.204;6.502;2022-12-20T04:23:44;1.53;;;1.43;;
22455;SDS011;11395;53.204;6.502;2022-12-20T04:26:11;1.30;;;1.30;;
22455;SDS011;11395;53.204;6.502;2022-12-20T04:28:38;1.40;;;1.30;;
22455;SDS011;11395;53.204;6.502;2022-12-20T04:31:08;1.00;;;1.00;;
22455;SDS011;11395;53.204;6.502;2022-12-20T04:33:36;1.20;;;1.20;;
22455;SDS011;11395;53.204;6.502;2022-12-20T04:36:03;1.43;;;1.33;;
22455;SDS011;11395;53.204;6.502;2022-12-20T04:38:31;1.10;;;1.10;;
22455;SDS011;11395;53.204;6.502;2022-12-20T04:40:58;1.80;;;1.37;;
22455;SDS011;11395;53.204;6.502;2022-12-20T04:43:27;1.60;;;1.50;;
22455;SDS011;11395;53.204;6.502;2022-12-20T04:45:56;1.20;;;1.20;;
22455;SDS011;11395;53.204;6.502;2022-12-20T04:48:24;1.13;;;1.13;;
22455;SDS011;11395;53.204;6.502;2022-12-20T04:50:53;1.20;;;1.20;;
22455;SDS011;11395;53.204;6.502;2022-12-20T04:53:21;1.27;;;1.20;;
22455;SDS011;11395;53.204;6.502;2022-12-20T04:56:07;1.67;;;1.57;;
22455;SDS011;11395;53.204;6.502;2022-12-20T04:58:34;1.53;;;1.43;;
22455;SDS011;11395;53.204;6.502;2022-12-20T05:01:02;2.07;;;1.43;;
22455;SDS011;11395;53.204;6.502;2022-12-20T05:03:37;1.40;;;1.30;;
22455;SDS011;11395;53.204;6.502;2022-12-20T05:06:03;1.30;;;1.20;;
22455;SDS011;11395;53.204;6.502;2022-12-20T05:08:32;2.17;;;1.23;;
22455;SDS011;11395;53.204;6.502;2022-12-20T05:10:58;1.20;;;1.20;;
22455;SDS011;11395;53.204;6.502;2022-12-20T05:13:25;1.47;;;1.20;;
22455;SDS011;11395;53.204;6.502;2022-12-20T05:15:52;1.60;;;1.60;;
22455;SDS011;11395;53.204;6.502;2022-12-20T05:18:23;1.40;;;1.30;;
22455;SDS011;11395;53.204;6.502;2022-12-20T05:21:02;1.37;;;1.27;;
22455;SDS011;11395;53.204;6.502;2022-12-20T05:23:50;1.50;;;1.40;;
22455;SDS011;11395;53.204;6.502;2022-12-20T05:26:52;1.40;;;1.40;;
22455;SDS011;11395;53.204;6.502;2022-12-20T05:29:18;1.10;;;1.10;;
22455;SDS011;11395;53.204;6.502;2022-12-20T05:31:45;1.37;;;1.27;;
22455;SDS011;11395;53.204;6.502;2022-12-20T05:34:12;1.33;;;1.23;;
22455;SDS011;11395;53.204;6.502;2022-12-20T05:36:40;1.20;;;1.20;;
22455;SDS011;11395;53.204;6.502;2022-12-20T05:39:07;1.57;;;1.40;;
22455;SDS011;11395;53.204;6.502;2022-12-20T05:41:37;1.07;;;1.07;;
22455;SDS011;11395;53.204;6.502;2022-12-20T05:44:06;1.30;;;1.30;;
22455;SDS011;11395;53.204;6.502;2022-12-20T05:46:35;1.40;;;1.30;;
22455;SDS011;11395;53.204;6.502;2022-12-20T05:49:07;1.23;;;1.20;;
22455;SDS011;11395;53.204;6.502;2022-12-20T05:51:33;1.00;;;1.00;;
22455;SDS011;11395;53.204;6.502;2022-12-20T05:54:06;1.53;;;1.23;;
22455;SDS011;11395;53.204;6.502;2022-12-20T05:56:59;1.10;;;1.10;;
22455;SDS011;11395;53.204;6.502;2022-12-20T05:59:33;1.20;;;1.20;;
22455;SDS011;11395;53.204;6.502;2022-12-20T06:02:01;1.33;;;1.23;;
22455;SDS011;11395;53.204;6.502;2022-12-20T06:04:29;1.40;;;1.13;;
22455;SDS011;11395;53.204;6.502;2022-12-20T06:06:56;1.27;;;1.17;;
22455;SDS011;11395;53.204;6.502;2022-12-20T06:09:24;1.17;;;0.97;;
22455;SDS011;11395;53.204;6.502;2022-12-20T06:11:59;1.87;;;1.20;;
22455;SDS011;11395;53.204;6.502;2022-12-20T06:14:28;1.20;;;1.20;;
22455;SDS011;11395;53.204;6.502;2022-12-20T06:16:55;2.37;;;1.10;;
22455;SDS011;11395;53.204;6.502;2022-12-20T06:19:22;1.10;;;1.10;;
22455;SDS011;11395;53.204;6.502;2022-12-20T06:21:52;1.10;;;1.10;;
22455;SDS011;11395;53.204;6.502;2022-12-20T06:24:25;1.20;;;1.10;;
22455;SDS011;11395;53.204;6.502;2022-12-20T06:26:52;1.67;;;1.30;;
22455;SDS011;11395;53.204;6.502;2022-12-20T06:29:19;1.00;;;1.00;;
22455;SDS011;11395;53.204;6.502;2022-12-20T06:31:50;1.23;;;1.13;;
22455;SDS011;11395;53.204;6.502;2022-12-20T06:34:17;1.10;;;1.10;;
22455;SDS011;11395;53.204;6.502;2022-12-20T06:36:43;1.10;;;1.00;;
22455;SDS011;11395;53.204;6.502;2022-12-20T06:39:16;1.30;;;1.20;;
22455;SDS011;11395;53.204;6.502;2022-12-20T06:41:53;1.17;;;1.07;;
22455;SDS011;11395;53.204;6.502;2022-12-20T06:44:20;1.10;;;1.10;;
22455;SDS011;11395;53.204;6.502;2022-12-20T06:46:48;1.33;;;1.20;;
22455;SDS011;11395;53.204;6.502;2022-12-20T06:49:14;1.10;;;1.10;;
22455;SDS011;11395;53.204;6.502;2022-12-20T06:51:41;1.37;;;1.07;;
22455;SDS011;11395;53.204;6.502;2022-12-20T06:54:08;2.13;;;1.50;;
22455;SDS011;11395;53.204;6.502;2022-12-20T06:56:34;2.20;;;1.50;;
22455;SDS011;11395;53.204;6.502;2022-12-20T06:59:03;1.13;;;1.03;;
22455;SDS011;11395;53.204;6.502;2022-12-20T07:01:30;1.30;;;1.20;;
22455;SDS011;11395;53.204;6.502;2022-12-20T07:03:57;1.33;;;1.23;;
22455;SDS011;11395;53.204;6.502;2022-12-20T07:06:23;1.73;;;1.13;;
22455;SDS011;11395;53.204;6.502;2022-12-20T07:08:51;1.40;;;1.10;;
22455;SDS011;11395;53.204;6.502;2022-12-20T07:11:17;3.77;;;1.30;;
22455;SDS011;11395;53.204;6.502;2022-12-20T07:13:44;1.00;;;1.00;;
22455;SDS011;11395;53.204;6.502;2022-12-20T07:16:10;2.00;;;1.10;;
22455;SDS011;11395;53.204;6.502;2022-12-20T07:18:36;1.70;;;1.10;;
22455;SDS011;11395;53.204;6.502;2022-12-20T07:21:03;1.13;;;1.07;;
22455;SDS011;11395;53.204;6.502;2022-12-20T07:23:30;2.13;;;1.50;;
22455;SDS011;11395;53.204;6.502;2022-12-20T07:25:58;1.20;;;1.10;;
22455;SDS011;11395;53.204;6.502;2022-12-20T07:28:26;2.90;;;1.10;;
22455;SDS011;11395;53.204;6.502;2022-12-20T07:30:53;1.20;;;1.10;;
22455;SDS011;11395;53.204;6.502;2022-12-20T07:33:19;1.10;;;1.07;;
22455;SDS011;11395;53.204;6.502;2022-12-20T07:35:46;1.30;;;1.20;;
22455;SDS011;11395;53.204;6.502;2022-12-20T07:38:12;1.13;;;1.10;;
22455;SDS011;11395;53.204;6.502;2022-12-20T07:40:39;1.37;;;1.27;;
22455;SDS011;11395;53.204;6.502;2022-12-20T07:43:07;1.63;;;1.10;;
22455;SDS011;11395;53.204;6.502;2022-12-20T07:45:34;2.60;;;1.10;;
22455;SDS011;11395;53.204;6.502;2022-12-20T07:48:04;0.90;;;0.90;;
22455;SDS011;11395;53.204;6.502;2022-12-20T07:50:31;1.30;;;1.20;;
22455;SDS011;11395;53.204;6.502;2022-12-20T07:52:59;1.27;;;1.13;;
22455;SDS011;11395;53.204;6.502;2022-12-20T07:55:26;1.33;;;1.00;;
22455;SDS011;11395;53.204;6.502;2022-12-20T07:57:56;0.90;;;0.90;;
22455;SDS011;11395;53.204;6.502;2022-12-20T08:00:28;1.20;;;1.20;;
22455;SDS011;11395;53.204;6.502;2022-12-20T08:03:03;0.93;;;0.93;;
22455;SDS011;11395;53.204;6.502;2022-12-20T08:05:37;0.90;;;0.90;;
22455;SDS011;11395;53.204;6.502;2022-12-20T08:08:07;2.10;;;1.47;;
22455;SDS011;11395;53.204;6.502;2022-12-20T08:10:34;1.10;;;1.10;;
22455;SDS011;11395;53.204;6.502;2022-12-20T08:13:03;1.03;;;1.03;;
22455;SDS011;11395;53.204;6.502;2022-12-20T08:15:30;1.17;;;1.10;;
22455;SDS011;11395;53.204;6.502;2022-12-20T08:17:57;1.10;;;1.10;;
22455;SDS011;11395;53.204;6.502;2022-12-20T08:20:24;1.20;;;1.20;;
22455;SDS011;11395;53.204;6.502;2022-12-20T08:22:50;0.97;;;0.97;;
22455;SDS011;11395;53.204;6.502;2022-12-20T08:25:16;1.30;;;1.20;;
22455;SDS011;11395;53.204;6.502;2022-12-20T08:27:43;1.33;;;1.23;;
22455;SDS011;11395;53.204;6.502;2022-12-20T08:30:09;1.00;;;1.00;;
22455;SDS011;11395;53.204;6.502;2022-12-20T08:32:36;0.90;;;0.90;;
22455;SDS011;11395;53.204;6.502;2022-12-20T08:35:02;1.10;;;1.10;;
22455;SDS011;11395;53.204;6.502;2022-12-20T08:37:29;0.90;;;0.90;;
22455;SDS011;11395;53.204;6.502;2022-12-20T08:39:56;1.10;;;1.10;;
22455;SDS011;11395;53.204;6.502;2022-12-20T08:42:22;1.30;;;1.30;;
22455;SDS011;11395;53.204;6.502;2022-12-20T08:44:48;1.37;;;1.20;;
22455;SDS011;11395;53.204;6.502;2022-12-20T08:47:15;1.30;;;1.20;;
22455;SDS011;11395;53.204;6.502;2022-12-20T08:49:41;1.30;;;1.20;;
22455;SDS011;11395;53.204;6.502;2022-12-20T08:52:08;1.07;;;1.00;;
22455;SDS011;11395;53.204;6.502;2022-12-20T08:54:34;1.13;;;1.10;;
22455;SDS011;11395;53.204;6.502;2022-12-20T08:57:01;1.67;;;0.93;;
22455;SDS011;11395;53.204;6.502;2022-12-20T08:59:27;0.93;;;0.93;;
22455;SDS011;11395;53.204;6.502;2022-12-20T09:01:54;1.00;;;1.00;;
22455;SDS011;11395;53.204;6.502;2022-12-20T09:04:21;1.10;;;1.00;;
22455;SDS011;11395;53.204;6.502;2022-12-20T09:06:47;1.10;;;1.10;;
22455;SDS011;11395;53.204;6.502;2022-12-20T09:09:14;1.17;;;1.10;;
22455;SDS011;11395;53.204;6.502;2022-12-20T09:11:41;1.70;;;1.07;;
22455;SDS011;11395;53.204;6.502;2022-12-20T09:14:07;1.00;;;1.00;;
22455;SDS011;11395;53.204;6.502;2022-12-20T09:16:34;1.20;;;1.10;;
22455;SDS011;11395;53.204;6.502;2022-12-20T09:19:01;2.00;;;1.20;;
22455;SDS011;11395;53.204;6.502;2022-12-20T09:21:28;1.27;;;1.17;;
22455;SDS011;11395;53.204;6.502;2022-12-20T09:23:55;1.20;;;1.10;;
22455;SDS011;11395;53.204;6.502;2022-12-20T09:26:23;2.63;;;1.40;;
22455;SDS011;11395;53.204;6.502;2022-12-20T09:28:50;1.60;;;1.50;;
22455;SDS011;11395;53.204;6.502;2022-12-20T09:31:37;1.70;;;1.60;;
22455;SDS011;11395;53.204;6.502;2022-12-20T09:34:09;1.40;;;1.30;;
22455;SDS011;11395;53.204;6.502;2022-12-20T09:36:37;1.20;;;1.10;;
22455;SDS011;11395;53.204;6.502;2022-12-20T09:39:03;1.70;;;1.60;;
22455;SDS011;11395;53.204;6.502;2022-12-20T09:41:37;1.40;;;1.37;;
22455;SDS011;11395;53.204;6.502;2022-12-20T09:46:53;1.10;;;1.00;;
22455;SDS011;11395;53.204;6.502;2022-12-20T09:49:25;1.40;;;1.30;;
22455;SDS011;11395;53.204;6.502;2022-12-20T09:52:01;2.47;;;1.50;;
22455;SDS011;11395;53.204;6.502;2022-12-20T10:01:19;1.33;;;1.30;;
22455;SDS011;11395;53.204;6.502;2022-12-20T10:03:47;1.67;;;1.30;;
22455;SDS011;11395;53.204;6.502;2022-12-20T10:12:16;3.17;;;1.40;;
22455;SDS011;11395;53.204;6.502;2022-12-20T10:15:17;1.00;;;1.00;;
22455;SDS011;11395;53.204;6.502;2022-12-20T10:18:05;1.40;;;1.30;;
22455;SDS011;11395;53.204;6.502;2022-12-20T10:21:04;3.20;;;1.60;;
22455;SDS011;11395;53.204;6.502;2022-12-20T10:23:39;1.70;;;1.30;;
22455;SDS011;11395;53.204;6.502;2022-12-20T10:26:12;1.40;;;1.30;;
22455;SDS011;11395;53.204;6.502;2022-12-20T10:28:39;1.23;;;1.10;;
22455;SDS011;11395;53.204;6.502;2022-12-20T10:31:15;1.20;;;1.00;;
22455;SDS011;11395;53.204;6.502;2022-12-20T10:33:43;1.57;;;1.30;;
22455;SDS011;11395;53.204;6.502;2022-12-20T10:36:26;1.43;;;1.20;;
22455;SDS011;11395;53.204;6.502;2022-12-20T10:38:55;1.90;;;1.10;;
22455;SDS011;11395;53.204;6.502;2022-12-20T10:41:24;1.50;;;1.40;;
22455;SDS011;11395;53.204;6.502;2022-12-20T10:43:53;1.53;;;1.43;;
22455;SDS011;11395;53.204;6.502;2022-12-20T10:46:34;1.10;;;1.10;;
22455;SDS011;11395;53.204;6.502;2022-12-20T10:51:52;2.37;;;1.60;;
22455;SDS011;11395;53.204;6.502;2022-12-20T10:54:24;1.30;;;1.20;;
22455;SDS011;11395;53.204;6.502;2022-12-20T10:56:58;1.40;;;1.30;;
22455;SDS011;11395;53.204;6.502;2022-12-20T11:01:59;1.60;;;1.20;;
22455;SDS011;11395;53.204;6.502;2022-12-20T11:04:28;2.00;;;1.23;;
22455;SDS011;11395;53.204;6.502;2022-12-20T11:06:58;1.00;;;1.00;;
22455;SDS011;11395;53.204;6.502;2022-12-20T11:12:04;1.40;;;1.30;;
22455;SDS011;11395;53.204;6.502;2022-12-20T11:14:42;1.57;;;1.47;;
22455;SDS011;11395;53.204;6.502;2022-12-20T11:17:18;1.60;;;1.50;;
22455;SDS011;11395;53.204;6.502;2022-12-20T11:19:49;1.30;;;1.20;;
22455;SDS011;11395;53.204;6.502;2022-12-20T11:28:20;1.40;;;1.30;;
22455;SDS011;11395;53.204;6.502;2022-12-20T11:39:04;2.60;;;1.60;;
22455;SDS011;11395;53.204;6.502;2022-12-20T11:41:54;1.40;;;1.10;;
22455;SDS011;11395;53.204;6.502;2022-12-20T11:44:56;1.13;;;1.10;;
22455;SDS011;11395;53.204;6.502;2022-12-20T11:47:38;1.30;;;1.20;;
22455;SDS011;11395;53.204;6.502;2022-12-20T11:52:45;1.60;;;1.50;;
22455;SDS011;11395;53.204;6.502;2022-12-20T11:55:32;1.37;;;1.30;;
22455;SDS011;11395;53.204;6.502;2022-12-20T12:00:44;1.53;;;1.43;;
22455;SDS011;11395;53.204;6.502;2022-12-20T12:03:34;1.40;;;1.30;;
22455;SDS011;11395;53.204;6.502;2022-12-20T12:06:39;2.23;;;1.40;;
22455;SDS011;11395;53.204;6.502;2022-12-20T12:11:35;1.20;;;1.10;;
22455;SDS011;11395;53.204;6.502;2022-12-20T12:14:07;1.10;;;1.00;;
22455;SDS011;11395;53.204;6.502;2022-12-20T12:16:41;1.43;;;1.33;;
22455;SDS011;11395;53.204;6.502;2022-12-20T12:19:12;1.87;;;1.43;;
22455;SDS011;11395;53.204;6.502;2022-12-20T12:21:46;1.83;;;1.70;;
22455;SDS011;11395;53.204;6.502;2022-12-20T12:24:26;1.97;;;1.87;;
22455;SDS011;11395;53.204;6.502;2022-12-20T12:26:58;1.97;;;1.87;;
22455;SDS011;11395;53.204;6.502;2022-12-20T12:29:25;2.10;;;1.90;;
22455;SDS011;11395;53.204;6.502;2022-12-20T12:31:56;2.17;;;1.97;;
22455;SDS011;11395;53.204;6.502;2022-12-20T12:45:31;1.60;;;1.50;;
22455;SDS011;11395;53.204;6.502;2022-12-20T12:48:19;1.20;;;1.20;;
22455;SDS011;11395;53.204;6.502;2022-12-20T12:50:55;1.60;;;1.50;;
22455;SDS011;11395;53.204;6.502;2022-12-20T12:53:25;1.40;;;1.30;;
22455;SDS011;11395;53.204;6.502;2022-12-20T13:11:50;1.40;;;1.30;;
22455;SDS011;11395;53.204;6.502;2022-12-20T13:21:56;1.40;;;1.30;;
22455;SDS011;11395;53.204;6.502;2022-12-20T13:40:48;1.30;;;1.20;;
22455;SDS011;11395;53.204;6.502;2022-12-20T13:45:48;1.07;;;1.07;;
22455;SDS011;11395;53.204;6.502;2022-12-20T13:48:19;1.90;;;1.00;;
22455;SDS011;11395;53.204;6.502;2022-12-20T13:50:52;1.27;;;1.17;;
22455;SDS011;11395;53.204;6.502;2022-12-20T13:53:21;1.23;;;1.17;;
22455;SDS011;11395;53.204;6.502;2022-12-20T13:55:50;1.37;;;1.20;;
22455;SDS011;11395;53.204;6.502;2022-12-20T13:58:32;1.03;;;1.00;;
22455;SDS011;11395;53.204;6.502;2022-12-20T14:01:32;1.70;;;1.10;;
22455;SDS011;11395;53.204;6.502;2022-12-20T14:03:51;1.00;;;1.00;;
22455;SDS011;11395;53.204;6.502;2022-12-20T14:06:19;1.37;;;1.17;;
22455;SDS011;11395;53.204;6.502;2022-12-20T14:08:48;1.23;;;1.23;;
22455;SDS011;11395;53.204;6.502;2022-12-20T14:11:17;1.10;;;1.00;;
22455;SDS011;11395;53.204;6.502;2022-12-20T14:14:10;1.53;;;1.20;;
22455;SDS011;11395;53.204;6.502;2022-12-20T14:16:38;1.13;;;1.00;;
22455;SDS011;11395;53.204;6.502;2022-12-20T14:19:05;1.33;;;1.23;;
22455;SDS011;11395;53.204;6.502;2022-12-20T14:21:38;1.27;;;1.23;;
22455;SDS011;11395;53.204;6.502;2022-12-20T14:24:11;1.10;;;1.10;;
22455;SDS011;11395;53.204;6.502;2022-12-20T14:26:43;1.20;;;1.10;;
22455;SDS011;11395;53.204;6.502;2022-12-20T14:29:20;1.20;;;1.17;;
22455;SDS011;11395;53.204;6.502;2022-12-20T14:31:53;1.30;;;1.00;;
22455;SDS011;11395;53.204;6.502;2022-12-20T14:34:22;1.23;;;1.10;;
22455;SDS011;11395;53.204;6.502;2022-12-20T14:40:15;1.20;;;1.10;;
22455;SDS011;11395;53.204;6.502;2022-12-20T14:42:48;1.17;;;1.10;;
22455;SDS011;11395;53.204;6.502;2022-12-20T14:45:25;1.43;;;1.33;;
22455;SDS011;11395;53.204;6.502;2022-12-20T14:47:55;1.17;;;0.90;;
22455;SDS011;11395;53.204;6.502;2022-12-20T14:50:49;1.43;;;1.20;;
22455;SDS011;11395;53.204;6.502;2022-12-20T14:53:19;1.10;;;1.10;;
22455;SDS011;11395;53.204;6.502;2022-12-20T14:55:49;0.90;;;0.90;;
22455;SDS011;11395;53.204;6.502;2022-12-20T15:00:57;1.30;;;1.20;;
22455;SDS011;11395;53.204;6.502;2022-12-20T15:03:24;1.90;;;1.20;;
22455;SDS011;11395;53.204;6.502;2022-12-20T15:05:54;1.83;;;1.30;;
22455;SDS011;11395;53.204;6.502;2022-12-20T15:13:40;1.00;;;1.00;;
22455;SDS011;11395;53.204;6.502;2022-12-20T15:16:21;1.40;;;1.30;;
22455;SDS011;11395;53.204;6.502;2022-12-20T15:18:50;0.90;;;0.90;;
22455;SDS011;11395;53.204;6.502;2022-12-20T15:22:00;1.23;;;1.10;;
22455;SDS011;11395;53.204;6.502;2022-12-20T15:24:52;1.40;;;1.30;;
22455;SDS011;11395;53.204;6.502;2022-12-20T15:27:30;1.30;;;1.13;;
22455;SDS011;11395;53.204;6.502;2022-12-20T15:30:00;1.10;;;1.00;;
22455;SDS011;11395;53.204;6.502;2022-12-20T15:32:33;0.93;;;0.93;;
22455;SDS011;11395;53.204;6.502;2022-12-20T15:35:40;1.17;;;1.07;;
22455;SDS011;11395;53.204;6.502;2022-12-20T15:38:10;1.30;;;1.20;;
22455;SDS011;11395;53.204;6.502;2022-12-20T15:45:24;1.47;;;1.37;;
22455;SDS011;11395;53.204;6.502;2022-12-20T15:48:28;1.00;;;1.00;;
22455;SDS011;11395;53.204;6.502;2022-12-20T15:54:23;1.17;;;1.17;;
22455;SDS011;11395;53.204;6.502;2022-12-20T15:56:58;1.23;;;1.13;;
22455;SDS011;11395;53.204;6.502;2022-12-20T15:59:43;1.47;;;1.10;;
22455;SDS011;11395;53.204;6.502;2022-12-20T16:02:20;1.20;;;1.20;;
22455;SDS011;11395;53.204;6.502;2022-12-20T16:04:48;1.00;;;1.00;;
22455;SDS011;11395;53.204;6.502;2022-12-20T16:07:15;1.30;;;1.20;;
22455;SDS011;11395;53.204;6.502;2022-12-20T16:09:41;2.00;;;1.20;;
22455;SDS011;11395;53.204;6.502;2022-12-20T16:12:15;1.07;;;0.97;;
22455;SDS011;11395;53.204;6.502;2022-12-20T16:14:47;1.30;;;1.10;;
22455;SDS011;11395;53.204;6.502;2022-12-20T16:17:14;1.10;;;1.10;;
22455;SDS011;11395;53.204;6.502;2022-12-20T16:19:41;1.23;;;1.13;;
22455;SDS011;11395;53.204;6.502;2022-12-20T16:22:15;1.73;;;1.10;;
22455;SDS011;11395;53.204;6.502;2022-12-20T16:24:44;1.10;;;1.10;;
22455;SDS011;11395;53.204;6.502;2022-12-20T16:27:12;1.03;;;1.03;;
22455;SDS011;11395;53.204;6.502;2022-12-20T16:29:41;1.40;;;1.30;;
22455;SDS011;11395;53.204;6.502;2022-12-20T16:32:12;1.33;;;1.30;;
22455;SDS011;11395;53.204;6.502;2022-12-20T16:34:44;1.43;;;1.13;;
22455;SDS011;11395;53.204;6.502;2022-12-20T16:37:10;1.10;;;1.10;;
22455;SDS011;11395;53.204;6.502;2022-12-20T16:39:37;1.17;;;1.17;;
22455;SDS011;11395;53.204;6.502;2022-12-20T16:42:08;1.17;;;1.10;;
22455;SDS011;11395;53.204;6.502;2022-12-20T16:44:39;1.40;;;1.30;;
22455;SDS011;11395;53.204;6.502;2022-12-20T16:47:09;1.70;;;1.50;;
22455;SDS011;11395;53.204;6.502;2022-12-20T16:49:36;1.47;;;1.37;;
22455;SDS011;11395;53.204;6.502;2022-12-20T16:52:03;1.20;;;1.20;;
22455;SDS011;11395;53.204;6.502;2022-12-20T16:54:31;1.10;;;1.10;;
22455;SDS011;11395;53.204;6.502;2022-12-20T16:56:57;1.07;;;1.07;;
22455;SDS011;11395;53.204;6.502;2022-12-20T16:59:30;1.20;;;1.20;;
22455;SDS011;11395;53.204;6.502;2022-12-20T17:01:56;0.97;;;0.97;;
22455;SDS011;11395;53.204;6.502;2022-12-20T17:04:22;1.10;;;1.10;;
22455;SDS011;11395;53.204;6.502;2022-12-20T17:06:50;1.03;;;1.03;;
22455;SDS011;11395;53.204;6.502;2022-12-20T17:09:18;2.07;;;1.43;;
22455;SDS011;11395;53.204;6.502;2022-12-20T17:11:47;1.00;;;1.00;;
22455;SDS011;11395;53.204;6.502;2022-12-20T17:14:28;1.70;;;1.23;;
22455;SDS011;11395;53.204;6.502;2022-12-20T17:20:41;1.93;;;1.20;;
22455;SDS011;11395;53.204;6.502;2022-12-20T17:23:23;1.30;;;1.20;;
22455;SDS011;11395;53.204;6.502;2022-12-20T17:26:04;1.50;;;1.40;;
22455;SDS011;11395;53.204;6.502;2022-12-20T17:28:33;1.50;;;1.40;;
22455;SDS011;11395;53.204;6.502;2022-12-20T17:34:19;1.30;;;1.20;;
22455;SDS011;11395;53.204;6.502;2022-12-20T17:36:50;2.57;;;1.37;;
22455;SDS011;11395;53.204;6.502;2022-12-20T17:39:19;1.47;;;1.37;;
22455;SDS011;11395;53.204;6.502;2022-12-20T17:41:46;1.50;;;1.40;;
22455;SDS011;11395;53.204;6.502;2022-12-20T17:44:23;1.83;;;1.10;;
22455;SDS011;11395;53.204;6.502;2022-12-20T17:46:51;1.50;;;1.30;;
22455;SDS011;11395;53.204;6.502;2022-12-20T17:49:18;1.00;;;1.00;;
22455;SDS011;11395;53.204;6.502;2022-12-20T17:51:45;1.60;;;1.50;;